SARL/AOL METAR and TAF weather

Enter ICAO airport designator
Station Type Date Time Source
SARL METAR 2021/07/24 21:00 UTC NOAA

SARL 242100Z 07004KT 5000 FU NSC 25/17 Q1010


Station Type Date Time Source
SARL Decoded METAR 2021/07/24 21:00 UTC NOAA

Paso De Los Libres Aerodrome, Argentina (SARL) 29-41S 057-09W 70M
Jul 24, 2021 - 05:00 PM EDT / 2021.07.24 2100 UTC
Wind: from the ENE (070 degrees) at 5 MPH (4 KT):0
Visibility: 3 mile(s):0
Weather: smoke
Temperature: 77 F (25 C)
Dew Point: 62 F (17 C)
Relative Humidity: 61%
Pressure (altimeter): 29.83 in. Hg (1010 hPa)
ob: SARL 242100Z 07004KT 5000 FU NSC 25/17 Q1010
cycle: 21

Station Type Date Time Source
SARL TAF UTC NOAA

Error!

Example: see airport list